Latest Weather Observations for Warracknabeal Airport

IDV60801

Issued at 9:42 am EST Thursday 18 July 2024 (issued every 10 minutes, with the page automatically refreshed every 10 minutes)

About weather observations | Map of weather stations | Latest weather observations for VIC | Other Formats
Station Details ID: 078018 Name: WARRACKNABEAL AIRPORT Lat: -36.32 Lon: 142.42 Height: 118.3 m
Data from the previous 72 hours. | See also: Recent months at Warracknabeal Airport
Date/Time
EST
Temp
°C
App
Temp
°C
Dew
Point
°C
Rel
Hum
%
Delta-T
°C
Wind Press
QNH
hPa
Press
MSL
hPa
Rain since
9am
mm
Dir  Spd
km/h
Gust
km/h
Spd
kts
Gust
kts
18/09:30am 7.6 4.4 7.0 96 0.3 W 13 17 7 9 1019.3 1019.5 0.0
18/09:00am 6.9 4.0 6.3 96 0.3 W 11 13 6 7 1019.2 1019.4 2.2
18/08:30am 7.3 3.7 6.7 96 0.3 W 15 17 8 9 1019.1 1019.3 1.8
18/08:00am 7.2 2.7 6.1 93 0.5 WSW 19 24 10 13 1019.0 1019.2 1.8
18/07:30am 6.1 1.8 5.1 93 0.4 WSW 17 20 9 11 1018.6 1018.8 1.8
18/07:00am 5.7 2.4 4.7 93 0.4 SW 11 17 6 9 1018.7 1018.9 1.8
18/06:30am 6.1 2.5 5.1 93 0.4 WSW 13 17 7 9 1018.9 1019.1 1.8
18/06:00am 5.7 1.3 4.8 94 0.4 WSW 17 20 9 11 1018.4 1018.6 1.8
18/05:30am 5.0 0.9 4.4 96 0.3 WSW 15 19 8 10 1018.2 1018.4 1.8
18/05:00am 4.8 0.3 4.1 95 0.3 WSW 17 19 9 10 1017.9 1018.1 1.8
18/04:30am 4.7 0.1 3.8 94 0.4 WSW 17 20 9 11 1017.6 1017.8 1.8
18/04:00am 4.6 0.4 3.7 94 0.4 WSW 15 19 8 10 1017.4 1017.6 1.8
18/03:30am 4.3 0.8 3.4 94 0.4 WSW 11 15 6 8 1017.3 1017.5 1.8
18/03:00am 4.7 0.4 3.5 92 0.5 WSW 15 17 8 9 1017.5 1017.7 1.8
18/02:30am 5.2 1.4 4.0 92 0.5 SW 13 19 7 10 1017.8 1018.0 1.8
18/02:00am 5.1 0.9 3.8 91 0.5 WSW 15 20 8 11 1017.7 1017.9 1.8
18/01:30am 5.0 1.2 3.7 91 0.5 SW 13 17 7 9 1017.6 1017.8 1.8
18/01:00am 5.3 1.5 4.1 92 0.5 SW 13 15 7 8 1017.3 1017.5 1.8
18/12:30am 6.0 2.0 5.0 93 0.4 SW 15 19 8 10 1017.3 1017.5 1.8
18/12:00am 6.3 2.8 5.3 93 0.4 SW 13 17 7 9 1017.5 1017.7 1.8
 
Date/Time
EST
Temp
°C
App
Temp
°C
Dew
Point
°C
Rel
Hum
%
Delta-T
°C
Wind Press
QNH
hPa
Press
MSL
hPa
Rain since
9am
mm
Dir  Spd
km/h
Gust
km/h
Spd
kts
Gust
kts
17/11:30pm 6.8 3.3 5.6 92 0.5 SW 13 17 7 9 1017.5 1017.7 1.8
17/11:00pm 8.0 4.3 6.3 89 0.8 SW 15 20 8 11 1017.5 1017.7 1.8
17/10:30pm 7.1 3.3 6.0 93 0.5 SW 15 17 8 9 1017.6 1017.8 1.8
17/10:00pm 7.3 3.1 5.8 90 0.7 SW 17 19 9 10 1017.3 1017.5 1.8
17/09:30pm 8.5 3.1 6.3 86 1.0 SSW 24 30 13 16 1016.9 1017.2 1.8
17/09:00pm 7.9 3.8 6.2 89 0.8 SW 17 19 9 10 1016.7 1017.0 1.8
17/08:30pm 8.5 4.5 6.6 88 0.9 SSW 17 22 9 12 1016.4 1016.7 1.8
17/08:00pm 9.5 4.3 7.4 87 1.0 SSW 24 30 13 16 1016.2 1016.5 1.8
17/07:30pm 9.3 4.9 7.3 87 1.0 SSW 20 28 11 15 1015.8 1016.1 1.8
17/07:00pm 9.9 4.8 7.5 85 1.2 SSW 24 30 13 16 1015.3 1015.6 1.8
17/06:30pm 10.8 6.2 8.2 84 1.3 SSW 22 32 12 17 1015.0 1015.3 1.8
17/06:00pm 11.3 5.8 9.0 86 1.2 S 28 33 15 18 1014.5 1014.8 1.8
17/05:30pm 12.1 9.3 10.0 87 1.1 SSW 15 24 8 13 1014.1 1014.3 1.8
17/05:00pm 12.6 9.6 10.7 88 1.0 SSW 17 20 9 11 1013.8 1014.0 1.8
17/04:30pm 12.0 9.6 10.2 89 0.9 SSW 13 15 7 8 1013.6 1013.8 1.8
17/04:00pm 11.6 8.6 10.5 93 0.6 SW 17 30 9 16 1013.5 1013.7 1.6
17/03:30pm 11.1 7.2 9.4 89 0.9 S 20 41 11 22 1013.0 1013.2 1.4
17/03:20pm 12.7 7.8 8.6 76 2.1 SSW 24 44 13 24 1012.8 1013.0 0.0
17/03:00pm 15.4 12.1 9.5 68 3.1 SSW 17 24 9 13 1012.6 1012.8 0.0
17/02:30pm 14.6 11.0 10.0 74 2.4 SSW 19 24 10 13 1012.7 1012.9 0.0
17/02:00pm 14.5 11.3 10.1 75 2.3 S 17 24 9 13 1012.6 1012.8 0.0
17/01:30pm 14.9 11.7 9.9 72 2.6 S 17 22 9 12 1012.8 1013.0 0.0
17/01:00pm 14.4 11.4 9.4 72 2.6 S 15 20 8 11 1013.1 1013.3 0.0
17/12:30pm 14.4 11.2 9.8 74 2.4 S 17 20 9 11 1013.3 1013.5 0.0
17/12:00pm 13.5 10.5 9.4 76 2.1 SSW 15 24 8 13 1013.8 1014.0 0.0
17/11:30am 13.0 9.9 10.2 83 1.5 SSW 17 22 9 12 1014.1 1014.3 0.0
17/11:00am 13.4 11.2 10.8 84 1.4 SSW 13 17 7 9 1014.2 1014.4 0.0
17/10:30am 11.9 9.4 9.8 87 1.1 SSW 13 17 7 9 1014.4 1014.7 0.0
17/10:00am 11.3 9.3 10.0 92 0.7 SW 11 15 6 8 1014.1 1014.3 0.0
17/09:30am 10.8 8.7 9.7 93 0.6 SW 11 15 6 8 1013.8 1014.0 0.0
17/09:00am 10.4 7.1 9.5 94 0.5 SSW 17 20 9 11 1013.5 1013.7 0.0
17/08:30am 10.0 7.8 9.4 96 0.3 SW 11 15 6 8 1013.3 1013.5 0.0
17/08:00am 9.6 7.3 9.0 96 0.3 SW 11 13 6 7 1012.9 1013.1 0.0
17/07:30am 10.0 7.7 9.1 94 0.4 SW 11 13 6 7 1012.7 1012.9 0.0
17/07:00am 10.2 7.6 9.3 94 0.5 SW 13 15 7 8 1012.7 1012.9 0.0
17/06:30am 10.2 7.2 9.4 95 0.4 SW 15 19 8 10 1012.5 1012.7 0.0
17/06:00am 10.2 7.7 9.6 96 0.3 SW 13 19 7 10 1012.2 1012.4 0.0
17/05:30am 10.2 7.7 9.6 96 0.3 SW 13 17 7 9 1012.0 1012.2 0.0
17/05:00am 10.2 7.6 9.4 95 0.4 SW 13 15 7 8 1012.0 1012.2 0.0
17/04:30am 10.2 7.2 9.3 94 0.5 SW 15 19 8 10 1011.9 1012.1 0.0
17/04:00am 10.2 7.2 9.4 95 0.4 SW 15 17 8 9 1012.0 1012.2 0.0
17/03:30am 10.3 6.6 9.4 94 0.5 SW 19 26 10 14 1012.1 1012.3 0.0
17/03:00am 10.1 6.3 9.2 94 0.4 SW 19 26 10 14 1012.1 1012.3 0.0
17/02:30am 9.8 6.4 9.0 95 0.4 SW 17 22 9 12 1012.0 1012.2 0.0
17/02:00am 10.0 6.0 9.1 94 0.4 SW 20 24 11 13 1012.1 1012.3 0.0
17/01:30am 10.0 6.0 9.1 94 0.4 SW 20 26 11 14 1012.1 1012.3 0.0
17/01:00am 9.9 6.0 9.3 96 0.3 SW 20 28 11 15 1012.3 1012.5 0.0
17/12:30am 9.9 6.1 9.1 95 0.4 SW 19 24 10 13 1012.5 1012.7 0.0
17/12:00am 10.0 5.6 8.9 93 0.5 SW 22 28 12 15 1012.6 1012.8 0.0
 
Date/Time
EST
Temp
°C
App
Temp
°C
Dew
Point
°C
Rel
Hum
%
Delta-T
°C
Wind Press
QNH
hPa
Press
MSL
hPa
Rain since
9am
mm
Dir  Spd
km/h
Gust
km/h
Spd
kts
Gust
kts
16/11:30pm 9.9 5.1 8.8 93 0.5 SW 24 32 13 17 1012.6 1012.8 0.0
16/11:00pm 10.1 5.7 8.9 92 0.6 SW 22 28 12 15 1012.6 1012.8 0.0
16/10:30pm 10.0 5.6 8.8 92 0.6 SW 22 32 12 17 1012.5 1012.7 0.0
16/10:00pm 10.1 4.5 8.9 92 0.6 SW 28 35 15 19 1012.4 1012.6 0.0
16/09:30pm 10.2 5.0 9.0 92 0.6 WSW 26 35 14 19 1012.5 1012.7 0.0
16/09:00pm 10.1 5.6 8.7 91 0.7 WSW 22 30 12 16 1012.3 1012.5 0.0
16/08:30pm 10.3 5.9 8.9 91 0.7 WSW 22 30 12 16 1012.2 1012.4 0.0
16/08:00pm 10.5 5.8 9.1 91 0.7 WSW 24 33 13 18 1012.0 1012.2 0.0
16/07:30pm 10.6 5.1 9.0 90 0.8 WSW 28 35 15 19 1011.9 1012.1 0.0
16/07:00pm 10.8 6.1 9.2 90 0.8 WSW 24 32 13 17 1011.6 1011.8 0.0
16/06:30pm 11.3 6.6 9.2 87 1.1 SW 24 32 13 17 1011.4 1011.6 0.0
16/06:00pm 11.4 6.7 9.1 86 1.2 SW 24 30 13 16 1011.2 1011.4 0.0
16/05:30pm 11.2 6.5 9.1 87 1.1 SW 24 32 13 17 1010.9 1011.1 0.0
16/05:00pm 12.6 7.5 9.2 80 1.7 SW 26 37 14 20 1010.5 1010.7 0.0
16/04:30pm 12.8 7.2 8.9 77 2.0 SW 28 37 15 20 1010.2 1010.4 0.0
16/04:00pm 13.0 6.5 9.1 77 2.0 SW 33 43 18 23 1010.0 1010.2 0.0
16/03:30pm 13.1 5.8 8.8 75 2.2 SW 37 48 20 26 1009.7 1009.9 0.0
16/03:00pm 13.2 6.3 8.9 75 2.2 SW 35 52 19 28 1009.6 1009.8 0.0
16/02:30pm 13.3 6.4 8.8 74 2.3 SW 35 50 19 27 1009.5 1009.7 0.0
16/02:00pm 12.9 6.1 9.2 78 1.9 SW 35 48 19 26 1009.6 1009.8 0.0
16/01:30pm 13.2 5.6 8.9 75 2.2 SW 39 50 21 27 1009.6 1009.8 0.0
16/01:00pm 13.2 6.9 8.9 75 2.2 SW 32 43 17 23 1009.9 1010.1 0.0
16/12:30pm 12.8 5.5 8.7 76 2.1 SW 37 48 20 26 1010.1 1010.3 0.0
16/12:00pm 12.7 5.8 9.0 78 1.9 SSW 35 48 19 26 1010.4 1010.6 0.0
16/11:30am 12.2 5.3 8.7 79 1.8 SW 35 48 19 26 1010.7 1010.9 0.0
16/11:00am 11.7 5.3 8.4 80 1.6 SW 32 43 17 23 1010.9 1011.1 0.0
16/10:30am 11.2 4.1 8.1 81 1.5 SW 35 50 19 27 1010.7 1010.9 0.0
16/10:00am 10.5 2.9 7.7 83 1.4 SW 37 50 20 27 1010.4 1010.6 0.0
16/09:30am 9.9 1.9 7.5 85 1.2 SW 39 59 21 32 1009.8 1010.0 0.0
16/09:27am 9.9 1.9 7.5 85 1.2 SW 39 59 21 32 1009.8 1010.0 0.0
16/09:00am 9.1 2.2 7.2 88 0.9 SW 33 43 18 23 1009.8 1010.0 0.0
16/08:30am 8.9 1.9 7.0 88 0.9 SW 33 46 18 25 1009.5 1009.7 0.0
16/08:00am 8.7 1.9 6.8 88 0.9 SW 32 41 17 22 1009.1 1009.3 0.0
16/07:30am 8.7 1.3 6.7 87 0.9 SW 35 48 19 26 1008.8 1009.0 0.0
16/07:00am 8.7 0.9 6.7 87 0.9 SW 37 48 20 26 1008.7 1008.9 0.0
16/06:30am 8.6 1.2 6.6 87 0.9 SW 35 46 19 25 1008.4 1008.6 0.0
16/06:00am 8.4 1.9 6.4 87 0.9 SW 30 43 16 23 1008.4 1008.6 0.0
16/05:30am 8.3 1.4 6.4 88 0.9 SW 32 44 17 24 1008.3 1008.5 0.0
16/05:00am 8.2 1.2 6.2 87 0.9 SW 32 48 17 26 1008.3 1008.5 0.0
16/04:30am 8.3 1.4 6.3 87 0.9 SW 32 46 17 25 1008.0 1008.3 0.0
16/04:00am 8.2 1.2 6.0 86 1.0 WSW 32 41 17 22 1008.3 1008.5 0.0
16/03:30am 8.0 1.4 6.0 87 0.9 WSW 30 43 16 23 1008.3 1008.5 0.0
16/03:00am 7.7 1.1 6.0 89 0.8 WSW 30 43 16 23 1008.7 1008.9 0.0
16/02:30am 7.5 1.2 5.8 89 0.8 WSW 28 39 15 21 1008.8 1009.0 0.0
16/02:00am 7.3 1.0 5.6 89 0.8 WSW 28 37 15 20 1008.6 1008.8 0.0
16/01:30am 6.9 0.9 5.2 89 0.8 WSW 26 33 14 18 1008.6 1008.8 0.0
16/01:00am 6.9 1.2 5.1 88 0.8 WSW 24 32 13 17 1009.1 1009.3 0.0
16/12:30am 6.8 1.9 5.0 88 0.8 WSW 20 32 11 17 1009.3 1009.5 0.0
16/12:00am 6.4 1.5 4.9 90 0.7 W 20 28 11 15 1009.6 1009.8 0.0
 
Date/Time
EST
Temp
°C
App
Temp
°C
Dew
Point
°C
Rel
Hum
%
Delta-T
°C
Wind Press
QNH
hPa
Press
MSL
hPa
Rain since
9am
mm
Dir  Spd
km/h
Gust
km/h
Spd
kts
Gust
kts
15/11:30pm 6.5 1.6 5.0 90 0.7 WSW 20 26 11 14 1009.7 1009.9 0.0
15/11:00pm 6.7 1.8 5.0 89 0.8 WSW 20 28 11 15 1009.8 1010.0 0.0
15/10:30pm 6.8 1.5 5.1 89 0.8 WSW 22 32 12 17 1010.0 1010.2 0.0
15/10:00pm 6.7 1.0 5.0 89 0.8 WSW 24 32 13 17 1010.1 1010.3 0.0
15/09:30pm 6.5 1.2 5.0 90 0.7 WSW 22 28 12 15 1010.3 1010.5 0.0
15/09:00pm 6.9 2.0 5.1 88 0.8 WSW 20 30 11 16 1010.2 1010.4 0.0
15/08:30pm 6.9 2.0 4.9 87 0.9 WSW 20 26 11 14 1010.3 1010.5 0.0
15/08:00pm 7.1 2.3 4.9 86 1.0 WSW 19 22 10 12 1010.2 1010.4 0.0
15/07:30pm 7.6 2.8 4.7 82 1.3 WSW 19 22 10 12 1010.3 1010.5 0.0
15/07:00pm 8.6 2.8 4.6 76 1.8 SW 24 32 13 17 1010.2 1010.4 0.0
15/06:30pm 9.3 3.8 4.1 70 2.3 SW 22 30 12 16 1010.2 1010.4 0.0
15/06:00pm 10.0 5.6 4.8 70 2.4 SW 17 24 9 13 1010.1 1010.3 0.0
15/05:30pm 10.2 6.6 5.2 71 2.3 SW 13 17 7 9 1009.9 1010.1 0.0
15/05:00pm 11.6 6.1 4.1 60 3.4 WSW 22 32 12 17 1009.6 1009.8 0.0
15/04:30pm 11.4 5.6 4.4 62 3.2 WSW 24 35 13 19 1009.7 1009.9 0.0
15/04:00pm 11.8 6.9 5.2 64 3.1 SW 20 28 11 15 1009.6 1009.8 0.0
15/03:30pm 12.8 7.8 6.4 65 3.1 WSW 22 32 12 17 1009.6 1009.8 0.0
15/03:00pm 11.8 6.8 6.3 69 2.6 WSW 22 30 12 16 1009.6 1009.8 0.0
15/02:30pm 11.6 6.2 6.3 70 2.5 WSW 24 33 13 18 1009.8 1010.0 0.0
15/02:00pm 11.6 6.1 6.1 69 2.6 SW 24 32 13 17 1010.0 1010.2 0.0
15/01:30pm 11.6 6.8 7.3 75 2.1 SW 22 30 12 16 1010.4 1010.6 0.0
15/01:00pm 10.8 5.5 6.9 77 1.9 SW 24 32 13 17 1010.9 1011.1 0.0
15/12:30pm 9.4 5.1 7.2 86 1.0 SW 19 28 10 15 1011.4 1011.6 0.0
15/12:00pm 8.9 4.6 6.9 87 0.9 SW 19 24 10 13 1011.9 1012.1 0.0
15/11:30am 7.9 3.7 7.5 97 0.2 SW 19 26 10 14 1012.5 1012.7 0.0
15/11:00am 7.4 3.1 7.1 98 0.1 WSW 19 24 10 13 1012.7 1012.9 0.0
15/10:30am 7.0 2.6 6.7 98 0.1 WSW 19 26 10 14 1012.8 1013.0 0.0
15/10:00am 6.5 1.9 6.4 99 0.0 WSW 20 26 11 14 1012.7 1012.9 0.0

Other formats

Comma delimited format used in spreadsheet applications
http://www.bom.gov.au/fwo/IDV60801/IDV60801.94920.axf

JavaScript Object Notation format (JSON) in row-major order
http://www.bom.gov.au/fwo/IDV60801/IDV60801.94920.json

Data quality

Most of these data are generated automatically and are frequently updated. Quality checks on data are not normally performed. It is possible for incorrect values to appear. Refer to information at About Latest Weather Observations and please check the disclaimer before using these data.